sensor_id;sensor_type;location;lat;lon;timestamp;P1;durP1;ratioP1;P2;durP2;ratioP2
30147;SDS011;16960;49.404;8.248;2023-07-31T00:01:56;1.47;;;1.37;;
30147;SDS011;16960;49.404;8.248;2023-07-31T00:04:23;3.50;;;1.67;;
30147;SDS011;16960;49.404;8.248;2023-07-31T00:06:51;5.70;;;2.10;;
30147;SDS011;16960;49.404;8.248;2023-07-31T00:09:18;3.13;;;1.57;;
30147;SDS011;16960;49.404;8.248;2023-07-31T00:11:45;2.47;;;1.70;;
30147;SDS011;16960;49.404;8.248;2023-07-31T00:14:12;3.40;;;1.80;;
30147;SDS011;16960;49.404;8.248;2023-07-31T00:16:39;2.70;;;1.37;;
30147;SDS011;16960;49.404;8.248;2023-07-31T00:19:06;3.73;;;1.70;;
30147;SDS011;16960;49.404;8.248;2023-07-31T00:21:33;5.73;;;2.00;;
30147;SDS011;16960;49.404;8.248;2023-07-31T00:24:01;2.43;;;1.70;;
30147;SDS011;16960;49.404;8.248;2023-07-31T00:26:28;2.80;;;1.50;;
30147;SDS011;16960;49.404;8.248;2023-07-31T00:28:55;2.73;;;1.90;;
30147;SDS011;16960;49.404;8.248;2023-07-31T00:31:22;2.17;;;1.97;;
30147;SDS011;16960;49.404;8.248;2023-07-31T00:33:48;2.80;;;1.73;;
30147;SDS011;16960;49.404;8.248;2023-07-31T00:36:15;2.33;;;1.63;;
30147;SDS011;16960;49.404;8.248;2023-07-31T00:38:43;2.80;;;1.70;;
30147;SDS011;16960;49.404;8.248;2023-07-31T00:41:11;3.73;;;1.50;;
30147;SDS011;16960;49.404;8.248;2023-07-31T00:43:38;2.30;;;1.60;;
30147;SDS011;16960;49.404;8.248;2023-07-31T00:46:05;4.03;;;1.80;;
30147;SDS011;16960;49.404;8.248;2023-07-31T00:48:32;4.77;;;1.50;;
30147;SDS011;16960;49.404;8.248;2023-07-31T00:51:01;2.23;;;1.23;;
30147;SDS011;16960;49.404;8.248;2023-07-31T00:53:27;5.07;;;1.97;;
30147;SDS011;16960;49.404;8.248;2023-07-31T00:55:54;3.90;;;2.07;;
30147;SDS011;16960;49.404;8.248;2023-07-31T00:58:23;1.50;;;1.20;;
30147;SDS011;16960;49.404;8.248;2023-07-31T01:00:50;2.27;;;1.80;;
30147;SDS011;16960;49.404;8.248;2023-07-31T01:03:17;2.30;;;1.63;;
30147;SDS011;16960;49.404;8.248;2023-07-31T01:05:46;3.17;;;1.70;;
30147;SDS011;16960;49.404;8.248;2023-07-31T01:08:24;1.50;;;1.40;;
30147;SDS011;16960;49.404;8.248;2023-07-31T01:11:00;2.50;;;1.70;;
30147;SDS011;16960;49.404;8.248;2023-07-31T01:13:34;1.90;;;1.43;;
30147;SDS011;16960;49.404;8.248;2023-07-31T01:16:01;2.93;;;1.70;;
30147;SDS011;16960;49.404;8.248;2023-07-31T01:18:28;2.00;;;1.73;;
30147;SDS011;16960;49.404;8.248;2023-07-31T01:20:57;3.87;;;2.10;;
30147;SDS011;16960;49.404;8.248;2023-07-31T01:24:02;4.43;;;1.90;;
30147;SDS011;16960;49.404;8.248;2023-07-31T01:26:47;4.13;;;1.60;;
30147;SDS011;16960;49.404;8.248;2023-07-31T01:29:20;3.60;;;1.77;;
30147;SDS011;16960;49.404;8.248;2023-07-31T01:31:55;3.20;;;1.73;;
30147;SDS011;16960;49.404;8.248;2023-07-31T01:34:27;3.27;;;1.80;;
30147;SDS011;16960;49.404;8.248;2023-07-31T01:36:55;3.87;;;1.70;;
30147;SDS011;16960;49.404;8.248;2023-07-31T01:39:22;2.40;;;2.00;;
30147;SDS011;16960;49.404;8.248;2023-07-31T01:41:50;3.80;;;1.90;;
30147;SDS011;16960;49.404;8.248;2023-07-31T01:44:17;2.60;;;1.93;;
30147;SDS011;16960;49.404;8.248;2023-07-31T01:46:44;3.50;;;2.20;;
30147;SDS011;16960;49.404;8.248;2023-07-31T01:49:11;2.40;;;1.67;;
30147;SDS011;16960;49.404;8.248;2023-07-31T01:51:38;2.87;;;1.60;;
30147;SDS011;16960;49.404;8.248;2023-07-31T01:54:05;2.17;;;1.60;;
30147;SDS011;16960;49.404;8.248;2023-07-31T01:56:32;5.00;;;1.83;;
30147;SDS011;16960;49.404;8.248;2023-07-31T01:59:00;2.20;;;1.40;;
30147;SDS011;16960;49.404;8.248;2023-07-31T02:01:27;3.80;;;2.07;;
30147;SDS011;16960;49.404;8.248;2023-07-31T02:03:54;4.27;;;1.87;;
30147;SDS011;16960;49.404;8.248;2023-07-31T02:06:21;3.33;;;1.57;;
30147;SDS011;16960;49.404;8.248;2023-07-31T02:08:48;3.10;;;1.83;;
30147;SDS011;16960;49.404;8.248;2023-07-31T02:11:15;2.70;;;2.10;;
30147;SDS011;16960;49.404;8.248;2023-07-31T02:13:42;4.80;;;2.30;;
30147;SDS011;16960;49.404;8.248;2023-07-31T02:16:10;1.93;;;1.70;;
30147;SDS011;16960;49.404;8.248;2023-07-31T02:18:37;2.43;;;2.23;;
30147;SDS011;16960;49.404;8.248;2023-07-31T02:21:04;4.33;;;2.10;;
30147;SDS011;16960;49.404;8.248;2023-07-31T02:23:30;2.20;;;1.90;;
30147;SDS011;16960;49.404;8.248;2023-07-31T02:25:57;3.33;;;1.60;;
30147;SDS011;16960;49.404;8.248;2023-07-31T02:28:24;5.17;;;1.90;;
30147;SDS011;16960;49.404;8.248;2023-07-31T02:30:51;2.40;;;1.63;;
30147;SDS011;16960;49.404;8.248;2023-07-31T02:33:20;2.93;;;1.67;;
30147;SDS011;16960;49.404;8.248;2023-07-31T02:35:47;3.70;;;2.10;;
30147;SDS011;16960;49.404;8.248;2023-07-31T02:38:14;3.20;;;2.10;;
30147;SDS011;16960;49.404;8.248;2023-07-31T02:40:40;2.80;;;1.80;;
30147;SDS011;16960;49.404;8.248;2023-07-31T02:43:07;3.87;;;2.20;;
30147;SDS011;16960;49.404;8.248;2023-07-31T02:45:34;2.73;;;1.90;;
30147;SDS011;16960;49.404;8.248;2023-07-31T02:48:01;3.10;;;1.90;;
30147;SDS011;16960;49.404;8.248;2023-07-31T02:50:30;2.13;;;1.63;;
30147;SDS011;16960;49.404;8.248;2023-07-31T02:52:57;3.53;;;1.77;;
30147;SDS011;16960;49.404;8.248;2023-07-31T02:55:24;2.90;;;2.20;;
30147;SDS011;16960;49.404;8.248;2023-07-31T02:57:51;2.63;;;1.90;;
30147;SDS011;16960;49.404;8.248;2023-07-31T03:00:18;2.63;;;1.93;;
30147;SDS011;16960;49.404;8.248;2023-07-31T03:02:45;3.53;;;1.70;;
30147;SDS011;16960;49.404;8.248;2023-07-31T03:05:12;1.97;;;1.70;;
30147;SDS011;16960;49.404;8.248;2023-07-31T03:07:40;2.10;;;1.90;;
30147;SDS011;16960;49.404;8.248;2023-07-31T03:10:07;2.20;;;2.00;;
30147;SDS011;16960;49.404;8.248;2023-07-31T03:12:35;2.83;;;2.03;;
30147;SDS011;16960;49.404;8.248;2023-07-31T03:15:02;2.70;;;1.90;;
30147;SDS011;16960;49.404;8.248;2023-07-31T03:17:29;2.17;;;1.80;;
30147;SDS011;16960;49.404;8.248;2023-07-31T03:19:56;3.07;;;1.83;;
30147;SDS011;16960;49.404;8.248;2023-07-31T03:22:22;4.27;;;2.20;;
30147;SDS011;16960;49.404;8.248;2023-07-31T03:24:51;4.60;;;2.10;;
30147;SDS011;16960;49.404;8.248;2023-07-31T03:27:18;4.60;;;1.60;;
30147;SDS011;16960;49.404;8.248;2023-07-31T03:29:45;4.17;;;2.00;;
30147;SDS011;16960;49.404;8.248;2023-07-31T03:32:12;2.10;;;1.53;;
30147;SDS011;16960;49.404;8.248;2023-07-31T03:34:38;2.30;;;1.83;;
30147;SDS011;16960;49.404;8.248;2023-07-31T03:37:05;4.10;;;1.70;;
30147;SDS011;16960;49.404;8.248;2023-07-31T03:39:34;3.80;;;2.57;;
30147;SDS011;16960;49.404;8.248;2023-07-31T03:42:02;3.83;;;1.97;;
30147;SDS011;16960;49.404;8.248;2023-07-31T03:44:30;2.20;;;1.70;;
30147;SDS011;16960;49.404;8.248;2023-07-31T03:46:57;4.37;;;1.90;;
30147;SDS011;16960;49.404;8.248;2023-07-31T03:49:23;2.13;;;1.67;;
30147;SDS011;16960;49.404;8.248;2023-07-31T03:51:50;2.67;;;1.90;;
30147;SDS011;16960;49.404;8.248;2023-07-31T03:54:17;5.30;;;2.13;;
30147;SDS011;16960;49.404;8.248;2023-07-31T03:56:44;2.80;;;1.80;;
30147;SDS011;16960;49.404;8.248;2023-07-31T03:59:12;3.63;;;1.90;;
30147;SDS011;16960;49.404;8.248;2023-07-31T04:01:39;3.27;;;1.60;;
30147;SDS011;16960;49.404;8.248;2023-07-31T04:04:06;2.50;;;2.07;;
30147;SDS011;16960;49.404;8.248;2023-07-31T04:06:33;2.80;;;2.10;;
30147;SDS011;16960;49.404;8.248;2023-07-31T04:09:00;1.80;;;1.57;;
30147;SDS011;16960;49.404;8.248;2023-07-31T04:11:28;2.57;;;1.80;;
30147;SDS011;16960;49.404;8.248;2023-07-31T04:13:54;2.60;;;2.23;;
30147;SDS011;16960;49.404;8.248;2023-07-31T04:16:23;4.63;;;2.30;;
30147;SDS011;16960;49.404;8.248;2023-07-31T04:18:50;5.43;;;2.20;;
30147;SDS011;16960;49.404;8.248;2023-07-31T04:21:16;3.60;;;2.30;;
30147;SDS011;16960;49.404;8.248;2023-07-31T04:23:43;2.50;;;1.90;;
30147;SDS011;16960;49.404;8.248;2023-07-31T04:26:10;3.53;;;1.80;;
30147;SDS011;16960;49.404;8.248;2023-07-31T04:28:37;2.80;;;1.70;;
30147;SDS011;16960;49.404;8.248;2023-07-31T04:31:04;3.03;;;1.60;;
30147;SDS011;16960;49.404;8.248;2023-07-31T04:33:32;2.27;;;1.57;;
30147;SDS011;16960;49.404;8.248;2023-07-31T04:35:59;3.63;;;2.20;;
30147;SDS011;16960;49.404;8.248;2023-07-31T04:38:26;3.60;;;1.90;;
30147;SDS011;16960;49.404;8.248;2023-07-31T04:40:53;2.50;;;2.03;;
30147;SDS011;16960;49.404;8.248;2023-07-31T04:43:20;2.73;;;1.90;;
30147;SDS011;16960;49.404;8.248;2023-07-31T04:45:47;3.47;;;2.00;;
30147;SDS011;16960;49.404;8.248;2023-07-31T04:48:15;2.47;;;2.03;;
30147;SDS011;16960;49.404;8.248;2023-07-31T04:50:43;7.33;;;1.90;;
30147;SDS011;16960;49.404;8.248;2023-07-31T04:53:10;2.80;;;1.70;;
30147;SDS011;16960;49.404;8.248;2023-07-31T04:55:37;5.53;;;2.00;;
30147;SDS011;16960;49.404;8.248;2023-07-31T04:58:04;4.97;;;1.73;;
30147;SDS011;16960;49.404;8.248;2023-07-31T05:00:30;3.33;;;2.20;;
30147;SDS011;16960;49.404;8.248;2023-07-31T05:02:57;6.10;;;2.30;;
30147;SDS011;16960;49.404;8.248;2023-07-31T05:05:24;4.07;;;1.80;;
30147;SDS011;16960;49.404;8.248;2023-07-31T05:07:53;3.97;;;1.70;;
30147;SDS011;16960;49.404;8.248;2023-07-31T05:10:19;3.80;;;2.23;;
30147;SDS011;16960;49.404;8.248;2023-07-31T05:12:46;3.60;;;2.00;;
30147;SDS011;16960;49.404;8.248;2023-07-31T05:15:13;3.17;;;1.87;;
30147;SDS011;16960;49.404;8.248;2023-07-31T05:17:40;5.60;;;2.23;;
30147;SDS011;16960;49.404;8.248;2023-07-31T05:20:08;2.90;;;1.97;;
30147;SDS011;16960;49.404;8.248;2023-07-31T05:22:35;4.80;;;2.60;;
30147;SDS011;16960;49.404;8.248;2023-07-31T05:25:04;3.47;;;1.93;;
30147;SDS011;16960;49.404;8.248;2023-07-31T05:27:31;3.43;;;2.10;;
30147;SDS011;16960;49.404;8.248;2023-07-31T05:29:58;3.07;;;2.17;;
30147;SDS011;16960;49.404;8.248;2023-07-31T05:32:26;5.20;;;2.03;;
30147;SDS011;16960;49.404;8.248;2023-07-31T05:34:53;4.10;;;2.30;;
30147;SDS011;16960;49.404;8.248;2023-07-31T05:37:19;3.67;;;2.27;;
30147;SDS011;16960;49.404;8.248;2023-07-31T05:39:47;3.83;;;2.77;;
30147;SDS011;16960;49.404;8.248;2023-07-31T05:42:15;3.13;;;2.40;;
30147;SDS011;16960;49.404;8.248;2023-07-31T05:44:42;4.70;;;1.97;;
30147;SDS011;16960;49.404;8.248;2023-07-31T05:47:09;2.90;;;2.07;;
30147;SDS011;16960;49.404;8.248;2023-07-31T05:49:36;3.40;;;2.10;;
30147;SDS011;16960;49.404;8.248;2023-07-31T05:52:03;5.33;;;2.17;;
30147;SDS011;16960;49.404;8.248;2023-07-31T05:54:31;3.50;;;1.87;;
30147;SDS011;16960;49.404;8.248;2023-07-31T05:56:58;11.60;;;1.90;;
30147;SDS011;16960;49.404;8.248;2023-07-31T05:59:26;4.23;;;2.20;;
30147;SDS011;16960;49.404;8.248;2023-07-31T06:01:53;2.80;;;2.37;;
30147;SDS011;16960;49.404;8.248;2023-07-31T06:04:20;4.03;;;2.40;;
30147;SDS011;16960;49.404;8.248;2023-07-31T06:06:50;3.40;;;2.13;;
30147;SDS011;16960;49.404;8.248;2023-07-31T06:09:17;4.33;;;2.40;;
30147;SDS011;16960;49.404;8.248;2023-07-31T06:11:45;3.33;;;2.23;;
30147;SDS011;16960;49.404;8.248;2023-07-31T06:14:12;5.00;;;2.40;;
30147;SDS011;16960;49.404;8.248;2023-07-31T06:16:40;3.93;;;2.27;;
30147;SDS011;16960;49.404;8.248;2023-07-31T06:19:09;4.30;;;2.03;;
30147;SDS011;16960;49.404;8.248;2023-07-31T06:21:36;3.13;;;2.40;;
30147;SDS011;16960;49.404;8.248;2023-07-31T06:24:03;3.47;;;2.30;;
30147;SDS011;16960;49.404;8.248;2023-07-31T06:26:30;3.43;;;2.03;;
30147;SDS011;16960;49.404;8.248;2023-07-31T06:28:57;3.33;;;2.50;;
30147;SDS011;16960;49.404;8.248;2023-07-31T06:31:24;4.27;;;2.10;;
30147;SDS011;16960;49.404;8.248;2023-07-31T06:33:53;5.40;;;2.73;;
30147;SDS011;16960;49.404;8.248;2023-07-31T06:36:20;4.27;;;2.00;;
30147;SDS011;16960;49.404;8.248;2023-07-31T06:38:48;3.90;;;1.93;;
30147;SDS011;16960;49.404;8.248;2023-07-31T06:41:14;5.40;;;2.20;;
30147;SDS011;16960;49.404;8.248;2023-07-31T06:43:41;4.70;;;2.13;;
30147;SDS011;16960;49.404;8.248;2023-07-31T06:46:08;2.30;;;1.87;;
30147;SDS011;16960;49.404;8.248;2023-07-31T06:48:36;4.23;;;2.33;;
30147;SDS011;16960;49.404;8.248;2023-07-31T06:51:04;7.20;;;2.63;;
30147;SDS011;16960;49.404;8.248;2023-07-31T06:53:31;5.20;;;2.60;;
30147;SDS011;16960;49.404;8.248;2023-07-31T06:55:58;9.50;;;3.17;;
30147;SDS011;16960;49.404;8.248;2023-07-31T06:58:25;5.97;;;2.50;;
30147;SDS011;16960;49.404;8.248;2023-07-31T07:00:52;6.37;;;3.23;;
30147;SDS011;16960;49.404;8.248;2023-07-31T07:03:19;6.50;;;2.40;;
30147;SDS011;16960;49.404;8.248;2023-07-31T07:05:45;5.17;;;2.60;;
30147;SDS011;16960;49.404;8.248;2023-07-31T07:08:14;3.50;;;2.33;;
30147;SDS011;16960;49.404;8.248;2023-07-31T07:10:42;3.77;;;2.53;;
30147;SDS011;16960;49.404;8.248;2023-07-31T07:13:08;4.27;;;2.47;;
30147;SDS011;16960;49.404;8.248;2023-07-31T07:15:35;4.57;;;2.50;;
30147;SDS011;16960;49.404;8.248;2023-07-31T07:18:02;4.60;;;2.90;;
30147;SDS011;16960;49.404;8.248;2023-07-31T07:20:29;3.70;;;2.70;;
30147;SDS011;16960;49.404;8.248;2023-07-31T07:22:56;3.13;;;2.43;;
30147;SDS011;16960;49.404;8.248;2023-07-31T07:25:24;5.23;;;2.70;;
30147;SDS011;16960;49.404;8.248;2023-07-31T07:27:52;4.63;;;3.00;;
30147;SDS011;16960;49.404;8.248;2023-07-31T07:30:19;6.33;;;3.17;;
30147;SDS011;16960;49.404;8.248;2023-07-31T07:32:46;4.50;;;2.70;;
30147;SDS011;16960;49.404;8.248;2023-07-31T07:35:13;3.47;;;2.00;;
30147;SDS011;16960;49.404;8.248;2023-07-31T07:37:40;6.30;;;2.47;;
30147;SDS011;16960;49.404;8.248;2023-07-31T07:40:07;4.93;;;2.67;;
30147;SDS011;16960;49.404;8.248;2023-07-31T07:42:36;3.70;;;2.20;;
30147;SDS011;16960;49.404;8.248;2023-07-31T07:45:03;3.30;;;2.10;;
30147;SDS011;16960;49.404;8.248;2023-07-31T07:47:31;5.10;;;2.73;;
30147;SDS011;16960;49.404;8.248;2023-07-31T07:49:58;7.20;;;2.80;;
30147;SDS011;16960;49.404;8.248;2023-07-31T07:52:25;4.70;;;2.57;;
30147;SDS011;16960;49.404;8.248;2023-07-31T07:54:52;4.47;;;2.63;;
30147;SDS011;16960;49.404;8.248;2023-07-31T07:57:19;3.70;;;2.40;;
30147;SDS011;16960;49.404;8.248;2023-07-31T07:59:47;4.90;;;2.60;;
30147;SDS011;16960;49.404;8.248;2023-07-31T08:02:14;4.73;;;2.80;;
30147;SDS011;16960;49.404;8.248;2023-07-31T08:04:41;4.63;;;2.47;;
30147;SDS011;16960;49.404;8.248;2023-07-31T08:07:08;6.80;;;3.10;;
30147;SDS011;16960;49.404;8.248;2023-07-31T08:09:37;3.80;;;2.63;;
30147;SDS011;16960;49.404;8.248;2023-07-31T08:12:04;4.00;;;2.83;;
30147;SDS011;16960;49.404;8.248;2023-07-31T08:14:31;5.17;;;2.57;;
30147;SDS011;16960;49.404;8.248;2023-07-31T08:17:00;7.80;;;2.97;;
30147;SDS011;16960;49.404;8.248;2023-07-31T08:19:27;4.13;;;2.00;;
30147;SDS011;16960;49.404;8.248;2023-07-31T08:21:54;7.43;;;3.30;;
30147;SDS011;16960;49.404;8.248;2023-07-31T08:24:21;5.30;;;2.00;;
30147;SDS011;16960;49.404;8.248;2023-07-31T08:26:48;5.10;;;2.77;;
30147;SDS011;16960;49.404;8.248;2023-07-31T08:29:15;6.83;;;2.97;;
30147;SDS011;16960;49.404;8.248;2023-07-31T08:31:42;7.20;;;3.40;;
30147;SDS011;16960;49.404;8.248;2023-07-31T08:34:10;6.77;;;3.40;;
30147;SDS011;16960;49.404;8.248;2023-07-31T08:36:37;6.10;;;2.87;;
30147;SDS011;16960;49.404;8.248;2023-07-31T08:39:04;5.70;;;2.70;;
30147;SDS011;16960;49.404;8.248;2023-07-31T08:41:31;4.73;;;2.60;;
30147;SDS011;16960;49.404;8.248;2023-07-31T08:44:03;7.80;;;2.80;;
30147;SDS011;16960;49.404;8.248;2023-07-31T08:46:30;5.27;;;2.83;;
30147;SDS011;16960;49.404;8.248;2023-07-31T08:48:58;3.60;;;2.60;;
30147;SDS011;16960;49.404;8.248;2023-07-31T08:51:27;4.80;;;3.27;;
30147;SDS011;16960;49.404;8.248;2023-07-31T08:53:55;5.00;;;2.67;;
30147;SDS011;16960;49.404;8.248;2023-07-31T08:56:23;5.50;;;3.00;;
30147;SDS011;16960;49.404;8.248;2023-07-31T08:58:51;6.33;;;3.07;;
30147;SDS011;16960;49.404;8.248;2023-07-31T09:01:20;5.93;;;3.20;;
30147;SDS011;16960;49.404;8.248;2023-07-31T09:03:48;4.73;;;2.20;;
30147;SDS011;16960;49.404;8.248;2023-07-31T09:06:17;4.63;;;2.53;;
30147;SDS011;16960;49.404;8.248;2023-07-31T09:08:48;3.63;;;2.60;;
30147;SDS011;16960;49.404;8.248;2023-07-31T09:11:17;6.70;;;2.57;;
30147;SDS011;16960;49.404;8.248;2023-07-31T09:13:44;3.93;;;2.70;;
30147;SDS011;16960;49.404;8.248;2023-07-31T09:16:12;4.97;;;2.43;;
30147;SDS011;16960;49.404;8.248;2023-07-31T09:18:54;5.43;;;2.97;;
30147;SDS011;16960;49.404;8.248;2023-07-31T09:21:23;4.33;;;2.60;;
30147;SDS011;16960;49.404;8.248;2023-07-31T09:23:52;4.67;;;2.53;;
30147;SDS011;16960;49.404;8.248;2023-07-31T09:26:29;6.47;;;3.03;;
30147;SDS011;16960;49.404;8.248;2023-07-31T09:28:58;6.57;;;2.70;;
30147;SDS011;16960;49.404;8.248;2023-07-31T09:31:31;4.97;;;3.20;;
30147;SDS011;16960;49.404;8.248;2023-07-31T09:33:59;6.27;;;2.83;;
30147;SDS011;16960;49.404;8.248;2023-07-31T09:36:28;6.17;;;2.80;;
30147;SDS011;16960;49.404;8.248;2023-07-31T09:38:59;4.73;;;2.87;;
30147;SDS011;16960;49.404;8.248;2023-07-31T09:41:28;4.67;;;2.83;;
30147;SDS011;16960;49.404;8.248;2023-07-31T09:43:55;4.90;;;2.60;;
30147;SDS011;16960;49.404;8.248;2023-07-31T09:46:22;7.00;;;2.73;;
30147;SDS011;16960;49.404;8.248;2023-07-31T09:48:54;4.70;;;2.93;;
30147;SDS011;16960;49.404;8.248;2023-07-31T09:51:34;8.23;;;3.40;;
30147;SDS011;16960;49.404;8.248;2023-07-31T09:54:05;6.40;;;3.00;;
30147;SDS011;16960;49.404;8.248;2023-07-31T09:56:36;4.83;;;3.13;;
30147;SDS011;16960;49.404;8.248;2023-07-31T09:59:07;5.80;;;2.90;;
30147;SDS011;16960;49.404;8.248;2023-07-31T10:01:37;6.57;;;3.23;;
30147;SDS011;16960;49.404;8.248;2023-07-31T10:04:04;4.30;;;2.90;;
30147;SDS011;16960;49.404;8.248;2023-07-31T10:06:32;3.97;;;2.90;;
30147;SDS011;16960;49.404;8.248;2023-07-31T10:09:00;4.10;;;2.67;;
30147;SDS011;16960;49.404;8.248;2023-07-31T10:11:29;4.10;;;2.87;;
30147;SDS011;16960;49.404;8.248;2023-07-31T10:14:00;5.40;;;3.53;;
30147;SDS011;16960;49.404;8.248;2023-07-31T10:16:28;7.53;;;3.40;;
30147;SDS011;16960;49.404;8.248;2023-07-31T10:18:56;5.23;;;2.97;;
30147;SDS011;16960;49.404;8.248;2023-07-31T10:21:24;4.33;;;2.67;;
30147;SDS011;16960;49.404;8.248;2023-07-31T10:23:51;4.20;;;3.80;;
30147;SDS011;16960;49.404;8.248;2023-07-31T10:26:18;4.50;;;3.30;;
30147;SDS011;16960;49.404;8.248;2023-07-31T10:28:47;7.53;;;3.20;;
30147;SDS011;16960;49.404;8.248;2023-07-31T10:31:16;4.93;;;3.13;;
30147;SDS011;16960;49.404;8.248;2023-07-31T10:33:44;5.53;;;3.30;;
30147;SDS011;16960;49.404;8.248;2023-07-31T10:36:12;4.97;;;3.07;;
30147;SDS011;16960;49.404;8.248;2023-07-31T10:38:39;4.40;;;3.00;;
30147;SDS011;16960;49.404;8.248;2023-07-31T10:41:09;3.47;;;2.57;;
30147;SDS011;16960;49.404;8.248;2023-07-31T10:43:37;6.17;;;3.53;;
30147;SDS011;16960;49.404;8.248;2023-07-31T10:46:08;9.17;;;3.43;;
30147;SDS011;16960;49.404;8.248;2023-07-31T10:48:38;6.00;;;3.40;;
30147;SDS011;16960;49.404;8.248;2023-07-31T10:51:07;4.37;;;3.10;;
30147;SDS011;16960;49.404;8.248;2023-07-31T10:53:37;4.50;;;3.50;;
30147;SDS011;16960;49.404;8.248;2023-07-31T10:56:05;7.80;;;3.27;;
30147;SDS011;16960;49.404;8.248;2023-07-31T10:58:33;7.63;;;4.23;;
30147;SDS011;16960;49.404;8.248;2023-07-31T11:01:02;6.47;;;2.90;;
30147;SDS011;16960;49.404;8.248;2023-07-31T11:03:45;8.20;;;2.53;;
30147;SDS011;16960;49.404;8.248;2023-07-31T11:06:13;5.93;;;2.90;;
30147;SDS011;16960;49.404;8.248;2023-07-31T11:08:41;6.43;;;3.20;;
30147;SDS011;16960;49.404;8.248;2023-07-31T11:11:10;5.10;;;2.80;;
30147;SDS011;16960;49.404;8.248;2023-07-31T11:13:42;5.60;;;3.43;;
30147;SDS011;16960;49.404;8.248;2023-07-31T11:16:10;7.00;;;3.53;;
30147;SDS011;16960;49.404;8.248;2023-07-31T11:18:39;5.23;;;3.37;;
30147;SDS011;16960;49.404;8.248;2023-07-31T11:21:08;5.20;;;3.03;;
30147;SDS011;16960;49.404;8.248;2023-07-31T11:23:38;4.47;;;3.47;;
30147;SDS011;16960;49.404;8.248;2023-07-31T11:26:05;4.40;;;2.90;;
30147;SDS011;16960;49.404;8.248;2023-07-31T11:28:32;3.60;;;2.60;;
30147;SDS011;16960;49.404;8.248;2023-07-31T11:31:01;7.03;;;3.10;;
30147;SDS011;16960;49.404;8.248;2023-07-31T11:33:28;5.20;;;3.47;;
30147;SDS011;16960;49.404;8.248;2023-07-31T11:35:55;5.67;;;2.70;;
30147;SDS011;16960;49.404;8.248;2023-07-31T11:38:25;4.00;;;2.70;;
30147;SDS011;16960;49.404;8.248;2023-07-31T11:40:53;3.37;;;2.80;;
30147;SDS011;16960;49.404;8.248;2023-07-31T11:43:21;8.17;;;2.87;;
30147;SDS011;16960;49.404;8.248;2023-07-31T11:45:49;5.40;;;3.13;;
30147;SDS011;16960;49.404;8.248;2023-07-31T11:48:20;4.70;;;3.00;;
30147;SDS011;16960;49.404;8.248;2023-07-31T11:50:49;4.73;;;3.23;;
30147;SDS011;16960;49.404;8.248;2023-07-31T11:53:28;3.90;;;2.63;;
30147;SDS011;16960;49.404;8.248;2023-07-31T11:56:01;6.70;;;3.30;;
30147;SDS011;16960;49.404;8.248;2023-07-31T11:58:29;3.17;;;2.30;;
30147;SDS011;16960;49.404;8.248;2023-07-31T12:00:57;4.63;;;2.70;;
30147;SDS011;16960;49.404;8.248;2023-07-31T12:03:25;5.20;;;2.90;;
30147;SDS011;16960;49.404;8.248;2023-07-31T12:05:52;4.30;;;3.10;;
30147;SDS011;16960;49.404;8.248;2023-07-31T12:08:20;2.70;;;2.40;;
30147;SDS011;16960;49.404;8.248;2023-07-31T12:10:49;4.63;;;2.90;;
30147;SDS011;16960;49.404;8.248;2023-07-31T12:13:19;5.73;;;2.80;;
30147;SDS011;16960;49.404;8.248;2023-07-31T12:15:47;7.73;;;2.90;;
30147;SDS011;16960;49.404;8.248;2023-07-31T12:18:15;6.13;;;3.47;;
30147;SDS011;16960;49.404;8.248;2023-07-31T12:20:45;5.97;;;3.20;;
30147;SDS011;16960;49.404;8.248;2023-07-31T12:23:14;3.20;;;2.70;;
30147;SDS011;16960;49.404;8.248;2023-07-31T12:25:42;5.13;;;2.73;;
30147;SDS011;16960;49.404;8.248;2023-07-31T12:28:11;4.90;;;2.87;;
30147;SDS011;16960;49.404;8.248;2023-07-31T12:30:38;4.73;;;2.83;;
30147;SDS011;16960;49.404;8.248;2023-07-31T12:33:06;7.00;;;2.83;;
30147;SDS011;16960;49.404;8.248;2023-07-31T12:35:40;4.30;;;3.20;;
30147;SDS011;16960;49.404;8.248;2023-07-31T12:38:09;6.67;;;3.10;;
30147;SDS011;16960;49.404;8.248;2023-07-31T12:40:37;2.97;;;2.20;;
30147;SDS011;16960;49.404;8.248;2023-07-31T12:43:05;3.67;;;2.33;;
30147;SDS011;16960;49.404;8.248;2023-07-31T12:45:33;3.90;;;2.30;;
30147;SDS011;16960;49.404;8.248;2023-07-31T12:48:01;3.70;;;2.73;;
30147;SDS011;16960;49.404;8.248;2023-07-31T12:50:28;4.37;;;2.17;;
30147;SDS011;16960;49.404;8.248;2023-07-31T12:52:56;4.33;;;2.40;;
30147;SDS011;16960;49.404;8.248;2023-07-31T12:55:23;5.00;;;2.47;;
30147;SDS011;16960;49.404;8.248;2023-07-31T12:57:50;3.17;;;2.40;;
30147;SDS011;16960;49.404;8.248;2023-07-31T13:00:17;6.10;;;3.70;;
30147;SDS011;16960;49.404;8.248;2023-07-31T13:02:46;3.77;;;2.43;;
30147;SDS011;16960;49.404;8.248;2023-07-31T13:05:13;4.67;;;2.70;;
30147;SDS011;16960;49.404;8.248;2023-07-31T13:07:40;4.33;;;2.27;;
30147;SDS011;16960;49.404;8.248;2023-07-31T13:10:07;3.33;;;2.60;;
30147;SDS011;16960;49.404;8.248;2023-07-31T13:12:35;2.83;;;2.53;;
30147;SDS011;16960;49.404;8.248;2023-07-31T13:15:02;5.67;;;2.33;;
30147;SDS011;16960;49.404;8.248;2023-07-31T13:17:29;4.33;;;3.00;;
30147;SDS011;16960;49.404;8.248;2023-07-31T13:19:57;2.80;;;2.40;;
30147;SDS011;16960;49.404;8.248;2023-07-31T13:22:24;2.50;;;2.10;;
30147;SDS011;16960;49.404;8.248;2023-07-31T13:24:51;3.10;;;2.27;;
30147;SDS011;16960;49.404;8.248;2023-07-31T13:27:18;3.37;;;2.50;;
30147;SDS011;16960;49.404;8.248;2023-07-31T13:29:46;2.90;;;2.20;;
30147;SDS011;16960;49.404;8.248;2023-07-31T13:32:13;6.93;;;2.50;;
30147;SDS011;16960;49.404;8.248;2023-07-31T13:34:41;2.53;;;2.20;;
30147;SDS011;16960;49.404;8.248;2023-07-31T13:37:09;6.13;;;2.60;;
30147;SDS011;16960;49.404;8.248;2023-07-31T13:39:36;3.70;;;2.40;;
30147;SDS011;16960;49.404;8.248;2023-07-31T13:42:04;2.93;;;2.17;;
30147;SDS011;16960;49.404;8.248;2023-07-31T13:44:33;3.47;;;2.30;;
30147;SDS011;16960;49.404;8.248;2023-07-31T13:47:00;3.63;;;2.77;;
30147;SDS011;16960;49.404;8.248;2023-07-31T13:49:27;4.80;;;2.50;;
30147;SDS011;16960;49.404;8.248;2023-07-31T13:51:54;3.30;;;2.07;;
30147;SDS011;16960;49.404;8.248;2023-07-31T13:54:23;5.13;;;2.63;;
30147;SDS011;16960;49.404;8.248;2023-07-31T13:56:50;3.93;;;2.67;;
30147;SDS011;16960;49.404;8.248;2023-07-31T13:59:18;4.90;;;2.90;;
30147;SDS011;16960;49.404;8.248;2023-07-31T14:01:45;3.30;;;2.20;;
30147;SDS011;16960;49.404;8.248;2023-07-31T14:04:12;4.47;;;2.77;;
30147;SDS011;16960;49.404;8.248;2023-07-31T14:06:39;4.67;;;2.67;;
30147;SDS011;16960;49.404;8.248;2023-07-31T14:09:06;4.73;;;2.57;;
30147;SDS011;16960;49.404;8.248;2023-07-31T14:11:34;5.13;;;2.70;;
30147;SDS011;16960;49.404;8.248;2023-07-31T14:14:01;4.47;;;2.73;;
30147;SDS011;16960;49.404;8.248;2023-07-31T14:16:29;4.37;;;2.50;;
30147;SDS011;16960;49.404;8.248;2023-07-31T14:18:56;3.70;;;2.40;;
30147;SDS011;16960;49.404;8.248;2023-07-31T14:21:24;2.50;;;2.30;;
30147;SDS011;16960;49.404;8.248;2023-07-31T14:23:51;2.83;;;2.13;;
30147;SDS011;16960;49.404;8.248;2023-07-31T14:26:18;3.73;;;2.80;;
30147;SDS011;16960;49.404;8.248;2023-07-31T14:28:46;2.70;;;2.07;;
30147;SDS011;16960;49.404;8.248;2023-07-31T14:31:13;5.73;;;2.90;;
30147;SDS011;16960;49.404;8.248;2023-07-31T14:33:40;4.00;;;2.80;;
30147;SDS011;16960;49.404;8.248;2023-07-31T14:36:07;2.33;;;2.07;;
30147;SDS011;16960;49.404;8.248;2023-07-31T14:38:34;3.70;;;2.57;;
30147;SDS011;16960;49.404;8.248;2023-07-31T14:41:01;3.50;;;2.90;;
30147;SDS011;16960;49.404;8.248;2023-07-31T14:43:28;5.77;;;3.23;;
30147;SDS011;16960;49.404;8.248;2023-07-31T14:45:56;3.87;;;2.57;;
30147;SDS011;16960;49.404;8.248;2023-07-31T14:48:25;4.47;;;2.80;;
30147;SDS011;16960;49.404;8.248;2023-07-31T14:50:52;4.63;;;2.17;;
30147;SDS011;16960;49.404;8.248;2023-07-31T14:53:19;6.07;;;2.63;;